Time;durP1;ratioP1;P1;durP2;ratioP2;P2;SDS_P1;SDS_P2;PMS_P1;PMS_P2;Temp;Humidity;BMP_temperature;BMP_pressure;BME280_temperature;BME280_humidity;BME280_pressure;Samples;Min_cycle;Max_cycle;Signal;HPM_P1;HPM_P2
2022/05/12 00:00:04;;;;;;;;;;;20.00;38.30;;;;;;5149673;27;19923;-54
2022/05/12 00:02:30;;;;;;;;;;;19.90;38.60;;;;;;5141158;27;19923;-48
2022/05/12 00:04:56;;;;;;;;;;;20.50;37.70;;;;;;5147659;27;20271;-55
2022/05/12 00:07:21;;;;;;;;;;;21.70;35.70;;;;;;5126765;27;19978;-49
2022/05/12 00:09:47;;;;;;;;;;;21.50;36.10;;;;;;5144159;27;20429;-49
2022/05/12 00:12:13;;;;;;;;;;;20.40;38.30;;;;;;5149170;27;20413;-46
2022/05/12 00:14:39;;;;;;;;;;;20.20;38.70;;;;;;5143738;27;19923;-47
2022/05/12 00:17:05;;;;;;;;;;;20.30;38.70;;;;;;5143837;27;19962;-45
2022/05/12 00:19:31;;;;;;;;;;;20.10;38.80;;;;;;5147734;27;20349;-47
2022/05/12 00:21:57;;;;;;;;;;;20.00;38.90;;;;;;5122999;27;19930;-48
2022/05/12 00:24:23;;;;;;;;;;;20.00;38.70;;;;;;5145027;27;19923;-50
2022/05/12 00:26:48;;;;;;;;;;;20.20;38.50;;;;;;5128560;27;19982;-47
2022/05/12 00:29:15;;;;;;;;;;;20.10;38.50;;;;;;5106478;27;20290;-46
2022/05/12 00:31:41;;;;;;;;;;;20.10;38.70;;;;;;5148713;27;20354;-47
2022/05/12 00:34:07;;;;;;;;;;;20.20;38.70;;;;;;5142197;27;19933;-46
2022/05/12 00:36:33;;;;;;;;;;;21.50;36.30;;;;;;5143705;27;19974;-50
2022/05/12 00:38:59;;;;;;;;;;;21.70;36.00;;;;;;5146484;27;20009;-50
2022/05/12 00:41:25;;;;;;;;;;;20.40;38.60;;;;;;5142249;27;19955;-48
2022/05/12 00:43:51;;;;;;;;;;;20.30;38.70;;;;;;5143218;27;19963;-50
2022/05/12 00:46:18;;;;;;;;;;;20.30;39.00;;;;;;5148760;27;20393;-49
2022/05/12 00:48:44;;;;;;;;;;;20.20;39.30;;;;;;5143077;27;20078;-48
2022/05/12 00:51:12;;;;;;;;;;;20.10;39.40;;;;;;5148364;27;20437;-48
2022/05/12 00:53:37;;;;;;;;;;;20.20;39.30;;;;;;5124068;27;19935;-47
2022/05/12 00:56:04;;;;;;;;;;;20.10;39.40;;;;;;5123434;27;19927;-48
2022/05/12 00:58:29;;;;;;;;;;;20.00;39.60;;;;;;5146179;27;19927;-47
2022/05/12 01:00:55;;;;;;;;;;;20.10;39.50;;;;;;5142262;27;19950;-48
2022/05/12 01:03:24;;;;;;;;;;;20.10;39.50;;;;;;5142654;27;19972;-47
2022/05/12 01:05:50;;;;;;;;;;;20.00;39.70;;;;;;5148072;27;19934;-46
2022/05/12 01:08:16;;;;;;;;;;;20.00;39.70;;;;;;5143069;27;20286;-48
2022/05/12 01:10:43;;;;;;;;;;;21.20;37.70;;;;;;5130000;27;20014;-54
2022/05/12 01:13:09;;;;;;;;;;;22.20;36.00;;;;;;5143794;27;19931;-49
2022/05/12 01:15:35;;;;;;;;;;;20.80;38.50;;;;;;5140561;27;19927;-48
2022/05/12 01:18:05;;;;;;;;;;;20.40;39.50;;;;;;5146829;27;20371;-48
2022/05/12 01:20:31;;;;;;;;;;;20.30;39.80;;;;;;5142722;27;19927;-46
2022/05/12 01:22:58;;;;;;;;;;;20.10;40.30;;;;;;5142621;27;19977;-46
2022/05/12 01:25:24;;;;;;;;;;;20.00;40.80;;;;;;5147817;27;20416;-46
2022/05/12 01:27:50;;;;;;;;;;;20.00;40.50;;;;;;5123934;27;20382;-47
2022/05/12 01:30:17;;;;;;;;;;;20.80;39.50;;;;;;5143064;27;19934;-55
2022/05/12 01:32:44;;;;;;;;;;;21.90;37.30;;;;;;5147031;27;19923;-48
2022/05/12 01:35:10;;;;;;;;;;;20.90;39.20;;;;;;5140096;27;19934;-49
2022/05/12 01:37:40;;;;;;;;;;;20.30;40.70;;;;;;5129011;27;19974;-47
2022/05/12 01:40:07;;;;;;;;;;;20.10;41.20;;;;;;5142268;27;20218;-51
2022/05/12 01:42:32;;;;;;;;;;;19.80;41.70;;;;;;5142222;27;19930;-48
2022/05/12 01:44:58;;;;;;;;;;;19.80;42.00;;;;;;5147513;27;20425;-48
2022/05/12 01:47:24;;;;;;;;;;;20.70;40.70;;;;;;5142247;27;19923;-49
2022/05/12 01:49:50;;;;;;;;;;;21.80;38.70;;;;;;5142578;27;20530;-51
2022/05/12 01:52:15;;;;;;;;;;;20.70;40.70;;;;;;5145018;27;19923;-49
2022/05/12 01:54:41;;;;;;;;;;;20.20;41.70;;;;;;5104041;27;19936;-48
2022/05/12 01:57:07;;;;;;;;;;;19.90;42.60;;;;;;5147316;27;19927;-49
2022/05/12 01:59:33;;;;;;;;;;;21.30;40.00;;;;;;5141903;27;19923;-50
2022/05/12 02:01:59;;;;;;;;;;;21.80;39.00;;;;;;5142001;27;19969;-48
2022/05/12 02:04:24;;;;;;;;;;;20.30;41.80;;;;;;5147579;27;19935;-47
2022/05/12 02:06:50;;;;;;;;;;;20.00;42.90;;;;;;5142085;27;19982;-46
2022/05/12 02:09:19;;;;;;;;;;;19.80;43.10;;;;;;5141356;27;19923;-53
2022/05/12 02:11:44;;;;;;;;;;;19.50;43.80;;;;;;5144808;27;19931;-49
2022/05/12 02:14:10;;;;;;;;;;;20.60;42.00;;;;;;5141254;27;20324;-51
2022/05/12 02:16:36;;;;;;;;;;;21.70;39.60;;;;;;5144750;27;19967;-56
2022/05/12 02:19:02;;;;;;;;;;;20.80;41.20;;;;;;5144582;27;19930;-47
2022/05/12 02:21:28;;;;;;;;;;;20.00;43.40;;;;;;5122975;27;19923;-48
2022/05/12 02:23:54;;;;;;;;;;;20.00;43.50;;;;;;5147257;27;19930;-45
2022/05/12 02:26:20;;;;;;;;;;;19.60;44.10;;;;;;5141793;27;19923;-46
2022/05/12 02:28:46;;;;;;;;;;;20.10;43.40;;;;;;5139602;27;19939;-47
2022/05/12 02:31:12;;;;;;;;;;;21.50;40.60;;;;;;5125708;27;19927;-47
2022/05/12 02:33:38;;;;;;;;;;;21.30;41.10;;;;;;5141303;27;20021;-49
2022/05/12 02:36:04;;;;;;;;;;;20.00;43.80;;;;;;5141178;27;19923;-53
2022/05/12 02:38:30;;;;;;;;;;;19.90;43.90;;;;;;5146767;27;19923;-46
2022/05/12 02:40:56;;;;;;;;;;;19.90;43.80;;;;;;5141316;27;19923;-45
2022/05/12 02:43:24;;;;;;;;;;;20.50;43.10;;;;;;5147135;27;19927;-44
2022/05/12 02:45:50;;;;;;;;;;;21.60;40.90;;;;;;5141390;27;20542;-47
2022/05/12 02:48:18;;;;;;;;;;;20.80;42.40;;;;;;5138610;27;19941;-50
2022/05/12 02:50:43;;;;;;;;;;;20.00;44.50;;;;;;5145908;27;20051;-45
2022/05/12 02:53:09;;;;;;;;;;;19.80;45.30;;;;;;5122643;27;19923;-44
2022/05/12 02:55:35;;;;;;;;;;;19.90;45.40;;;;;;5122735;27;20172;-45
2022/05/12 02:58:01;;;;;;;;;;;19.70;46.10;;;;;;5145649;27;19931;-45
2022/05/12 03:00:26;;;;;;;;;;;20.00;45.50;;;;;;5141063;27;19972;-44
2022/05/12 03:02:52;;;;;;;;;;;19.70;46.30;;;;;;5128489;27;19934;-45
2022/05/12 03:05:18;;;;;;;;;;;19.90;46.20;;;;;;5139116;27;19970;-48
2022/05/12 03:07:44;;;;;;;;;;;20.50;45.80;;;;;;5139351;27;19930;-46
2022/05/12 03:10:10;;;;;;;;;;;21.60;43.80;;;;;;5146349;27;19946;-46
2022/05/12 03:12:36;;;;;;;;;;;21.60;43.70;;;;;;5122597;27;19971;-47
2022/05/12 03:15:03;;;;;;;;;;;20.20;46.80;;;;;;5140710;27;20438;-45
2022/05/12 03:17:29;;;;;;;;;;;19.80;47.60;;;;;;5146206;27;20334;-44
2022/05/12 03:19:55;;;;;;;;;;;20.00;47.00;;;;;;5122406;27;20006;-45
2022/05/12 03:22:21;;;;;;;;;;;19.70;47.70;;;;;;5145228;27;19938;-53
2022/05/12 03:24:47;;;;;;;;;;;20.00;47.70;;;;;;5139109;27;19930;-46
2022/05/12 03:27:14;;;;;;;;;;;21.30;45.60;;;;;;5140496;27;19927;-50
2022/05/12 03:29:40;;;;;;;;;;;21.70;44.40;;;;;;5146199;27;20349;-45
2022/05/12 03:32:10;;;;;;;;;;;20.30;47.10;;;;;;5140833;27;19923;-44
2022/05/12 03:34:37;;;;;;;;;;;20.00;47.60;;;;;;5140545;27;20433;-44
2022/05/12 03:37:03;;;;;;;;;;;19.80;47.80;;;;;;5146349;27;19974;-44
2022/05/12 03:39:29;;;;;;;;;;;19.80;47.90;;;;;;5140968;27;20394;-45
2022/05/12 03:41:55;;;;;;;;;;;20.70;47.70;;;;;;5139115;27;19931;-46
2022/05/12 03:47:05;;;;;;;;;;;20.70;47.30;;;;;;5138036;27;19926;-45
2022/05/12 03:49:30;;;;;;;;;;;20.20;47.80;;;;;;5143395;27;19930;-53
2022/05/12 03:51:57;;;;;;;;;;;20.00;48.30;;;;;;5143425;27;19970;-44
2022/05/12 03:54:23;;;;;;;;;;;19.90;47.90;;;;;;5140428;27;19923;-44
2022/05/12 03:56:49;;;;;;;;;;;19.80;48.40;;;;;;5145919;27;20320;-44
2022/05/12 03:59:15;;;;;;;;;;;20.00;47.80;;;;;;5140266;27;20045;-46
2022/05/12 04:01:41;;;;;;;;;;;20.00;47.80;;;;;;5137622;27;19959;-44
2022/05/12 04:04:06;;;;;;;;;;;19.90;47.80;;;;;;5144828;27;19923;-44
2022/05/12 04:06:32;;;;;;;;;;;20.80;48.00;;;;;;5139954;27;19978;-44
2022/05/12 04:08:58;;;;;;;;;;;21.70;46.60;;;;;;5141449;27;20367;-53
2022/05/12 04:11:24;;;;;;;;;;;21.10;46.90;;;;;;5149129;27;19923;-48
2022/05/12 04:13:50;;;;;;;;;;;20.40;47.80;;;;;;5144022;27;20431;-45
2022/05/12 04:16:15;;;;;;;;;;;20.20;48.20;;;;;;5149500;27;19950;-46
2022/05/12 04:18:41;;;;;;;;;;;19.90;48.20;;;;;;5122574;27;19938;-46
2022/05/12 04:21:07;;;;;;;;;;;20.10;48.20;;;;;;5141760;27;19927;-48
2022/05/12 04:23:33;;;;;;;;;;;21.00;47.50;;;;;;5148467;27;20294;-46
2022/05/12 04:25:59;;;;;;;;;;;21.90;45.50;;;;;;5143574;27;19923;-44
2022/05/12 04:28:25;;;;;;;;;;;20.70;47.60;;;;;;5143674;27;19929;-46
2022/05/12 04:30:51;;;;;;;;;;;20.20;48.40;;;;;;5148951;27;19983;-45
2022/05/12 04:36:01;;;;;;;;;;;20.00;48.10;;;;;;5144401;27;19924;-53
2022/05/12 04:38:27;;;;;;;;;;;19.80;48.30;;;;;;5145110;27;20278;-44
2022/05/12 04:40:53;;;;;;;;;;;20.00;47.90;;;;;;5142546;27;20393;-43
2022/05/12 04:43:19;;;;;;;;;;;19.80;48.10;;;;;;5148578;27;19930;-45
2022/05/12 04:45:44;;;;;;;;;;;19.80;48.20;;;;;;5124803;27;20340;-45
2022/05/12 04:48:10;;;;;;;;;;;20.60;48.70;;;;;;5143078;27;20285;-46
2022/05/12 04:50:36;;;;;;;;;;;21.50;47.30;;;;;;5148611;27;19931;-46
2022/05/12 04:53:02;;;;;;;;;;;21.30;47.20;;;;;;5143373;27;19927;-46
2022/05/12 04:55:28;;;;;;;;;;;20.20;49.00;;;;;;5141273;27;19950;-45
2022/05/12 04:57:56;;;;;;;;;;;20.00;49.20;;;;;;5128185;27;19967;-44
2022/05/12 05:00:23;;;;;;;;;;;20.00;48.70;;;;;;5142735;27;20067;-45
2022/05/12 05:02:49;;;;;;;;;;;19.90;48.80;;;;;;5148111;27;19924;-45
2022/05/12 05:05:15;;;;;;;;;;;20.10;49.30;;;;;;5142708;27;19947;-45
2022/05/12 05:07:41;;;;;;;;;;;21.30;48.40;;;;;;5122861;27;20393;-48
2022/05/12 05:10:07;;;;;;;;;;;21.60;47.10;;;;;;5128072;27;19931;-45
2022/05/12 05:12:33;;;;;;;;;;;20.30;49.50;;;;;;5142855;27;19923;-45
2022/05/12 05:14:58;;;;;;;;;;;20.00;49.60;;;;;;5139706;27;20252;-48
2022/05/12 05:17:24;;;;;;;;;;;19.70;50.10;;;;;;5147420;27;20010;-45
2022/05/12 05:19:50;;;;;;;;;;;19.80;49.20;;;;;;5141946;27;20345;-44
2022/05/12 05:22:16;;;;;;;;;;;20.90;49.40;;;;;;5148089;27;20425;-46
2022/05/12 05:24:42;;;;;;;;;;;21.80;47.60;;;;;;5124140;27;19923;-46
2022/05/12 05:27:08;;;;;;;;;;;20.80;48.80;;;;;;5142643;27;19934;-46
2022/05/12 05:29:34;;;;;;;;;;;20.20;49.80;;;;;;5148150;27;19927;-45
2022/05/12 05:32:00;;;;;;;;;;;19.80;50.40;;;;;;5122526;27;20021;-46
2022/05/12 05:34:26;;;;;;;;;;;19.90;49.70;;;;;;5140590;27;20305;-48
2022/05/12 05:36:52;;;;;;;;;;;19.80;49.70;;;;;;5147472;27;19966;-44
2022/05/12 05:39:18;;;;;;;;;;;19.80;49.70;;;;;;5142266;27;19923;-46
2022/05/12 05:41:44;;;;;;;;;;;20.90;49.90;;;;;;5146075;27;19930;-51
2022/05/12 05:44:10;;;;;;;;;;;21.70;48.50;;;;;;5144391;27;20009;-46
2022/05/12 05:46:36;;;;;;;;;;;20.80;49.70;;;;;;5123709;27;20390;-47
2022/05/12 05:49:01;;;;;;;;;;;20.00;50.80;;;;;;5147698;27;20002;-48
2022/05/12 05:54:22;;;;;;;;;;;19.90;49.90;;;;;;5071884;27;20337;-45
2022/05/12 05:56:48;;;;;;;;;;;20.00;50.90;;;;;;5147348;27;20050;-46
2022/05/12 05:59:14;;;;;;;;;;;21.10;50.20;;;;;;5123723;27;19923;-47
2022/05/12 06:01:40;;;;;;;;;;;21.80;48.20;;;;;;5141866;27;20302;-44
2022/05/12 06:04:06;;;;;;;;;;;20.70;49.50;;;;;;5147470;27;19937;-45
2022/05/12 06:06:32;;;;;;;;;;;20.20;49.70;;;;;;5142149;27;19923;-50
2022/05/12 06:08:58;;;;;;;;;;;20.00;49.40;;;;;;5140604;27;20594;-53
2022/05/12 06:11:23;;;;;;;;;;;20.30;50.90;;;;;;5126321;27;20184;-46
2022/05/12 06:13:49;;;;;;;;;;;21.50;48.90;;;;;;5141431;27;20527;-49
2022/05/12 06:16:15;;;;;;;;;;;21.60;47.70;;;;;;5146997;27;19923;-45
2022/05/12 06:18:41;;;;;;;;;;;20.50;49.50;;;;;;5141589;27;19929;-45
2022/05/12 06:21:09;;;;;;;;;;;20.20;49.30;;;;;;5141655;27;19931;-44
2022/05/12 06:23:35;;;;;;;;;;;20.00;49.10;;;;;;5146996;27;19923;-46
2022/05/12 06:26:01;;;;;;;;;;;20.50;50.40;;;;;;5141426;27;19981;-46
2022/05/12 06:28:28;;;;;;;;;;;21.70;48.20;;;;;;5138878;27;20425;-49
2022/05/12 06:30:54;;;;;;;;;;;21.30;48.20;;;;;;5145828;27;19937;-45
2022/05/12 06:33:19;;;;;;;;;;;20.40;49.20;;;;;;5140546;27;19923;-48
2022/05/12 06:35:47;;;;;;;;;;;20.20;49.30;;;;;;5146917;27;19923;-45
2022/05/12 06:38:13;;;;;;;;;;;20.00;49.20;;;;;;5123090;27;20010;-45
2022/05/12 06:40:39;;;;;;;;;;;19.80;48.90;;;;;;5141302;27;19958;-47
2022/05/12 06:43:05;;;;;;;;;;;20.60;50.00;;;;;;5147070;27;19922;-45
2022/05/12 06:45:30;;;;;;;;;;;21.50;48.40;;;;;;5140049;27;19931;-46
2022/05/12 06:47:56;;;;;;;;;;;21.10;48.60;;;;;;5139212;27;20204;-46
2022/05/12 06:50:28;;;;;;;;;;;20.30;49.40;;;;;;5146263;27;20017;-45
2022/05/12 06:52:54;;;;;;;;;;;20.00;49.40;;;;;;5140994;27;19933;-46
2022/05/12 06:55:20;;;;;;;;;;;20.20;50.20;;;;;;5143956;27;19929;-54
2022/05/12 06:57:46;;;;;;;;;;;21.30;48.80;;;;;;5144074;27;20010;-45
2022/05/12 07:00:16;;;;;;;;;;;21.70;47.50;;;;;;5141228;27;20389;-44
2022/05/12 07:02:43;;;;;;;;;;;20.60;49.00;;;;;;5138647;27;20025;-46
2022/05/12 07:05:09;;;;;;;;;;;20.30;49.00;;;;;;5117679;28;20014;-49
2022/05/12 07:07:35;;;;;;;;;;;20.10;48.80;;;;;;5119370;28;20371;-46
2022/05/12 07:10:01;;;;;;;;;;;20.90;49.70;;;;;;5107345;28;19927;-44
2022/05/12 07:12:26;;;;;;;;;;;21.90;47.50;;;;;;5120413;28;20397;-45
2022/05/12 07:14:53;;;;;;;;;;;20.90;48.60;;;;;;5120216;28;19979;-48
2022/05/12 07:17:19;;;;;;;;;;;20.30;49.20;;;;;;5125284;27;20374;-45
2022/05/12 07:19:45;;;;;;;;;;;20.00;49.20;;;;;;5120389;28;19930;-44
2022/05/12 07:27:39;;;;;;;;;;;21.30;48.00;;;;;;5119794;28;19923;-44
2022/05/12 07:30:05;;;;;;;;;;;20.50;49.20;;;;;;5124853;28;20457;-51
2022/05/12 07:32:31;;;;;;;;;;;20.10;49.20;;;;;;5120860;28;19956;-46
2022/05/12 07:34:57;;;;;;;;;;;19.80;49.40;;;;;;5119770;28;20017;-47
2022/05/12 07:37:23;;;;;;;;;;;20.60;50.70;;;;;;5125380;28;19928;-47
2022/05/12 07:39:48;;;;;;;;;;;21.70;48.30;;;;;;5119610;28;19945;-43
2022/05/12 07:42:14;;;;;;;;;;;21.20;48.30;;;;;;5116836;28;19923;-46
2022/05/12 07:44:40;;;;;;;;;;;20.30;49.60;;;;;;5127567;28;19977;-45
2022/05/12 07:47:09;;;;;;;;;;;19.90;49.60;;;;;;5122988;28;19945;-46
2022/05/12 07:49:35;;;;;;;;;;;20.60;50.50;;;;;;5124648;28;19930;-51
2022/05/12 07:52:01;;;;;;;;;;;21.60;48.60;;;;;;5128076;28;19953;-46
2022/05/12 07:54:27;;;;;;;;;;;21.30;48.40;;;;;;5123408;28;20325;-47
2022/05/12 07:56:53;;;;;;;;;;;20.50;49.30;;;;;;5128810;28;20390;-44
2022/05/12 07:59:19;;;;;;;;;;;20.00;49.70;;;;;;5121135;28;19927;-49
2022/05/12 08:01:45;;;;;;;;;;;19.90;49.10;;;;;;5121052;28;20459;-47
2022/05/12 08:04:12;;;;;;;;;;;19.90;50.40;;;;;;5127977;28;19930;-49
2022/05/12 08:06:39;;;;;;;;;;;20.90;50.20;;;;;;5122751;28;20411;-45
2022/05/12 08:09:05;;;;;;;;;;;21.80;48.40;;;;;;5123138;28;20221;-45
2022/05/12 08:11:31;;;;;;;;;;;20.80;49.60;;;;;;5128423;28;20385;-45
2022/05/12 08:13:57;;;;;;;;;;;20.20;49.80;;;;;;5123306;28;19979;-45
2022/05/12 08:16:23;;;;;;;;;;;19.90;49.90;;;;;;5128197;28;19927;-50
2022/05/12 08:18:49;;;;;;;;;;;20.30;50.90;;;;;;5120079;28;20301;-45
2022/05/12 08:21:16;;;;;;;;;;;21.50;49.30;;;;;;5121849;28;19937;-43
2022/05/12 08:23:41;;;;;;;;;;;21.60;48.30;;;;;;5127865;28;19930;-45
2022/05/12 08:26:07;;;;;;;;;;;20.60;49.70;;;;;;5122746;28;20014;-45
2022/05/12 08:28:33;;;;;;;;;;;20.20;49.80;;;;;;5122708;28;20566;-45
2022/05/12 08:30:59;;;;;;;;;;;20.10;49.40;;;;;;5128391;28;20488;-47
2022/05/12 08:33:25;;;;;;;;;;;19.80;49.50;;;;;;5122729;28;19977;-48
2022/05/12 08:35:51;;;;;;;;;;;20.70;50.80;;;;;;5107188;28;20430;-47
2022/05/12 08:38:17;;;;;;;;;;;21.60;49.10;;;;;;5102805;28;20385;-44
2022/05/12 08:41:01;;;;;;;;;;;21.20;49.00;;;;;;5122375;28;20358;-44
2022/05/12 08:43:29;;;;;;;;;;;20.50;49.90;;;;;;5127672;28;19923;-45
2022/05/12 08:45:58;;;;;;;;;;;20.10;49.90;;;;;;5104084;28;19949;-45
2022/05/12 08:48:24;;;;;;;;;;;19.90;50.70;;;;;;5104340;28;19924;-47
2022/05/12 08:50:51;;;;;;;;;;;21.00;50.60;;;;;;5128011;28;20389;-48
2022/05/12 08:53:17;;;;;;;;;;;21.90;48.50;;;;;;5122082;28;19938;-49
2022/05/12 08:55:47;;;;;;;;;;;21.00;49.40;;;;;;5100304;28;19979;-48
2022/05/12 08:58:19;;;;;;;;;;;20.40;49.90;;;;;;5108633;28;20294;-46
2022/05/12 09:01:04;;;;;;;;;;;20.20;49.50;;;;;;5103744;28;19927;-45
2022/05/12 09:03:45;;;;;;;;;;;20.00;49.30;;;;;;5122327;28;20249;-47
2022/05/12 09:06:14;;;;;;;;;;;20.80;50.60;;;;;;5127519;28;20018;-45
2022/05/12 09:08:52;;;;;;;;;;;21.80;48.70;;;;;;5122184;28;20023;-45
2022/05/12 09:11:24;;;;;;;;;;;20.80;49.80;;;;;;5122148;28;20426;-46
2022/05/12 09:13:51;;;;;;;;;;;20.30;49.90;;;;;;5124485;28;19958;-47
2022/05/12 09:16:18;;;;;;;;;;;20.00;49.70;;;;;;5120726;28;20004;-45
2022/05/12 09:18:44;;;;;;;;;;;19.80;51.10;;;;;;5121443;28;19924;-47
2022/05/12 09:21:13;;;;;;;;;;;21.10;50.50;;;;;;5127057;28;19932;-45
2022/05/12 09:23:38;;;;;;;;;;;21.80;48.50;;;;;;5102466;28;19924;-44
2022/05/12 09:26:23;;;;;;;;;;;20.80;49.70;;;;;;5127374;28;20018;-49
2022/05/12 09:28:49;;;;;;;;;;;20.30;50.10;;;;;;5127257;28;20432;-45
2022/05/12 09:31:18;;;;;;;;;;;20.00;50.10;;;;;;5119871;28;19923;-46
2022/05/12 09:33:44;;;;;;;;;;;20.00;49.50;;;;;;5125198;28;20057;-45
2022/05/12 09:36:14;;;;;;;;;;;20.90;50.80;;;;;;5120735;28;19924;-48
2022/05/12 09:38:41;;;;;;;;;;;21.80;48.90;;;;;;5121292;28;19975;-45
2022/05/12 09:41:14;;;;;;;;;;;20.90;49.90;;;;;;5107103;28;20393;-49
2022/05/12 09:43:40;;;;;;;;;;;20.30;50.30;;;;;;5102992;28;19930;-45
2022/05/12 09:46:21;;;;;;;;;;;20.20;49.80;;;;;;5121564;28;19923;-46
2022/05/12 09:48:50;;;;;;;;;;;20.60;51.40;;;;;;5125554;28;20427;-49
2022/05/12 09:51:25;;;;;;;;;;;21.80;49.20;;;;;;5119176;28;20923;-47
2022/05/12 09:53:55;;;;;;;;;;;21.10;49.60;;;;;;5120916;28;19924;-46
2022/05/12 09:56:39;;;;;;;;;;;20.30;50.40;;;;;;5126402;28;20043;-44
2022/05/12 09:59:07;;;;;;;;;;;20.30;50.10;;;;;;5121350;28;20411;-45
2022/05/12 10:01:33;;;;;;;;;;;19.90;49.90;;;;;;5121045;28;20421;-45
2022/05/12 10:09:51;;;;;;;;;;;20.90;50.20;;;;;;5103167;28;19927;-45
2022/05/12 10:12:19;;;;;;;;;;;20.30;50.40;;;;;;5125624;28;20020;-47
2022/05/12 10:14:55;;;;;;;;;;;20.00;50.60;;;;;;5120926;28;20022;-46
2022/05/12 10:17:34;;;;;;;;;;;20.60;51.60;;;;;;5121037;28;19927;-45
2022/05/12 10:20:10;;;;;;;;;;;21.70;49.80;;;;;;5108020;28;20014;-45
2022/05/12 10:22:43;;;;;;;;;;;21.20;49.90;;;;;;5121107;28;19923;-44
2022/05/12 10:25:18;;;;;;;;;;;20.30;50.60;;;;;;5120634;28;20009;-44
2022/05/12 10:27:50;;;;;;;;;;;20.20;50.20;;;;;;5123699;28;19927;-44
2022/05/12 10:30:25;;;;;;;;;;;19.90;50.10;;;;;;5120006;28;20324;-46
2022/05/12 10:32:58;;;;;;;;;;;20.50;51.60;;;;;;5120387;28;19988;-45
2022/05/12 10:35:33;;;;;;;;;;;21.50;50.30;;;;;;5105604;28;21437;-45
2022/05/12 10:38:02;;;;;;;;;;;21.40;49.70;;;;;;5120595;28;19923;-44
2022/05/12 10:40:37;;;;;;;;;;;20.50;50.60;;;;;;5120629;28;20770;-44
2022/05/12 10:43:09;;;;;;;;;;;20.20;50.50;;;;;;5126161;28;19933;-45
2022/05/12 10:45:54;;;;;;;;;;;20.10;49.80;;;;;;5117853;28;20187;-48
2022/05/12 10:48:33;;;;;;;;;;;20.00;51.00;;;;;;5119401;28;20367;-46
2022/05/12 10:51:03;;;;;;;;;;;21.20;51.20;;;;;;5106137;28;20303;-45
2022/05/12 10:53:37;;;;;;;;;;;21.80;49.30;;;;;;5120836;28;20609;-49
2022/05/12 10:56:24;;;;;;;;;;;20.80;50.50;;;;;;5120297;28;20021;-45
2022/05/12 10:59:01;;;;;;;;;;;20.30;50.40;;;;;;5126000;28;19939;-43
2022/05/12 11:01:32;;;;;;;;;;;20.10;50.10;;;;;;5120380;28;19928;-46
2022/05/12 11:04:03;;;;;;;;;;;20.00;51.10;;;;;;5099065;28;19930;-49
2022/05/12 11:06:49;;;;;;;;;;;21.00;51.40;;;;;;5106620;28;19928;-47
2022/05/12 11:09:17;;;;;;;;;;;21.80;49.60;;;;;;5119966;28;19923;-52
2022/05/12 11:11:45;;;;;;;;;;;20.60;50.90;;;;;;5120373;28;19930;-44
2022/05/12 11:14:23;;;;;;;;;;;20.40;50.40;;;;;;5125636;28;19923;-46
2022/05/12 11:16:48;;;;;;;;;;;20.10;50.40;;;;;;5120100;28;20093;-45
2022/05/12 11:19:19;;;;;;;;;;;20.00;49.90;;;;;;5123219;27;19939;-45
2022/05/12 11:22:05;;;;;;;;;;;20.30;51.40;;;;;;5126939;28;20011;-46
2022/05/12 11:24:54;;;;;;;;;;;21.30;50.90;;;;;;5070665;28;20013;-44
2022/05/12 11:27:28;;;;;;;;;;;21.80;49.30;;;;;;5123517;28;19927;-45
2022/05/12 11:30:04;;;;;;;;;;;20.60;50.50;;;;;;5111152;28;20030;-45
2022/05/12 11:32:42;;;;;;;;;;;20.30;50.40;;;;;;5105821;28;19924;-45
2022/05/12 11:35:09;;;;;;;;;;;20.10;50.20;;;;;;5123729;28;19931;-46
2022/05/12 11:37:36;;;;;;;;;;;20.30;51.70;;;;;;5129083;28;19923;-48
2022/05/12 11:40:06;;;;;;;;;;;21.40;50.90;;;;;;5102995;28;19927;-48
2022/05/12 11:45:28;;;;;;;;;;;20.70;50.80;;;;;;5086131;28;20371;-45
2022/05/12 11:48:01;;;;;;;;;;;20.30;50.50;;;;;;5123509;28;20022;-45
2022/05/12 11:50:32;;;;;;;;;;;20.00;50.30;;;;;;5104523;28;19923;-47
2022/05/12 11:53:16;;;;;;;;;;;20.70;52.20;;;;;;5129028;28;19924;-46
2022/05/12 11:55:55;;;;;;;;;;;21.70;50.10;;;;;;5123788;28;19945;-45
2022/05/12 11:58:38;;;;;;;;;;;21.10;50.10;;;;;;5121357;28;19927;-52
2022/05/12 12:01:05;;;;;;;;;;;20.40;50.60;;;;;;5108083;28;20335;-53
2022/05/12 12:03:35;;;;;;;;;;;20.20;50.30;;;;;;5106306;28;20413;-47
2022/05/12 12:06:04;;;;;;;;;;;20.00;50.20;;;;;;5105023;28;19924;-47
2022/05/12 12:08:29;;;;;;;;;;;20.60;51.80;;;;;;5128355;28;19941;-45
2022/05/12 12:11:17;;;;;;;;;;;21.60;50.30;;;;;;5123248;28;19927;-44
2022/05/12 12:13:43;;;;;;;;;;;21.40;49.80;;;;;;5122584;28;19924;-48
2022/05/12 12:16:10;;;;;;;;;;;20.50;50.80;;;;;;5126866;28;19930;-44
2022/05/12 12:18:36;;;;;;;;;;;20.30;50.20;;;;;;5102506;28;19923;-44
2022/05/12 12:21:22;;;;;;;;;;;20.20;50.20;;;;;;5122434;28;19927;-43
2022/05/12 12:24:13;;;;;;;;;;;20.00;50.10;;;;;;5128217;28;19924;-44
2022/05/12 12:26:40;;;;;;;;;;;19.80;50.00;;;;;;5104460;28;19924;-47
2022/05/12 12:29:09;;;;;;;;;;;19.80;49.90;;;;;;5122226;27;20010;-44
2022/05/12 12:31:37;;;;;;;;;;;20.00;51.10;;;;;;5128008;28;20471;-46
2022/05/12 12:34:22;;;;;;;;;;;21.10;51.50;;;;;;5121971;28;19927;-45
2022/05/12 12:36:48;;;;;;;;;;;21.80;50.30;;;;;;5120394;28;19924;-43
2022/05/12 12:39:35;;;;;;;;;;;21.20;50.70;;;;;;5127289;28;20034;-48
2022/05/12 12:42:12;;;;;;;;;;;20.30;50.90;;;;;;5122318;28;19976;-46
2022/05/12 12:44:43;;;;;;;;;;;20.20;50.70;;;;;;5122630;28;19923;-45
2022/05/12 12:47:24;;;;;;;;;;;19.90;50.80;;;;;;5127914;28;19924;-45
2022/05/12 12:49:51;;;;;;;;;;;20.80;52.30;;;;;;5122582;28;20059;-45
2022/05/12 12:52:17;;;;;;;;;;;21.80;50.30;;;;;;5103633;28;19973;-47
2022/05/12 12:57:44;;;;;;;;;;;20.60;50.80;;;;;;5106308;28;19930;-46
2022/05/12 13:00:14;;;;;;;;;;;20.10;50.90;;;;;;5122107;28;19930;-44
2022/05/12 13:02:41;;;;;;;;;;;20.10;50.10;;;;;;5128094;28;19925;-46
2022/05/12 13:05:07;;;;;;;;;;;20.50;52.00;;;;;;5122245;28;19923;-45
2022/05/12 13:07:33;;;;;;;;;;;21.30;51.60;;;;;;5122853;28;19929;-47
2022/05/12 13:10:00;;;;;;;;;;;21.40;50.70;;;;;;5127983;28;20013;-48
2022/05/12 13:12:27;;;;;;;;;;;20.70;51.20;;;;;;5119139;28;20060;-48
2022/05/12 13:14:54;;;;;;;;;;;20.30;51.10;;;;;;5102545;28;19930;-46
2022/05/12 13:17:45;;;;;;;;;;;20.00;50.80;;;;;;5126999;28;19951;-45
2022/05/12 13:20:13;;;;;;;;;;;20.30;52.50;;;;;;5103717;28;19930;-45
2022/05/12 13:22:45;;;;;;;;;;;21.50;51.40;;;;;;5101628;28;20532;-45
2022/05/12 13:25:11;;;;;;;;;;;21.60;50.40;;;;;;5127646;28;19929;-43
2022/05/12 13:27:38;;;;;;;;;;;20.70;51.30;;;;;;5103503;28;20013;-45
2022/05/12 13:30:05;;;;;;;;;;;20.30;51.10;;;;;;5106790;28;19979;-52
2022/05/12 13:32:44;;;;;;;;;;;20.10;50.70;;;;;;5120942;28;19923;-45
2022/05/12 13:35:15;;;;;;;;;;;19.80;50.70;;;;;;5121361;28;20010;-47
2022/05/12 13:38:13;;;;;;;;;;;20.40;52.30;;;;;;5127441;28;19933;-47
2022/05/12 13:40:41;;;;;;;;;;;21.50;51.80;;;;;;5106125;27;19972;-45
2022/05/12 13:43:13;;;;;;;;;;;21.30;51.10;;;;;;5103045;28;19927;-44
2022/05/12 13:45:41;;;;;;;;;;;20.50;51.60;;;;;;5123924;28;19927;-52
2022/05/12 13:48:11;;;;;;;;;;;20.30;51.00;;;;;;5123618;28;20357;-49
2022/05/12 13:50:39;;;;;;;;;;;20.00;50.80;;;;;;5083857;28;19934;-45
2022/05/12 13:53:05;;;;;;;;;;;20.40;53.20;;;;;;5108084;28;19930;-44
2022/05/12 13:55:31;;;;;;;;;;;21.40;52.20;;;;;;5121187;28;19923;-44
2022/05/12 13:58:04;;;;;;;;;;;21.60;50.70;;;;;;5121272;28;20298;-48
2022/05/12 14:00:34;;;;;;;;;;;20.80;51.50;;;;;;5126571;28;19945;-45
2022/05/12 14:03:13;;;;;;;;;;;20.50;51.00;;;;;;5121342;28;19932;-46
2022/05/12 14:05:39;;;;;;;;;;;20.30;50.70;;;;;;5121076;28;20012;-46
2022/05/12 14:08:06;;;;;;;;;;;20.10;50.60;;;;;;5123612;28;19927;-47
2022/05/12 14:10:35;;;;;;;;;;;19.90;50.40;;;;;;5120482;28;20403;-46
2022/05/12 14:21:16;;;;;;;;;;;21.50;52.50;;;;;;5105676;28;19924;-44
2022/05/12 14:23:42;;;;;;;;;;;21.80;51.40;;;;;;5126354;28;19992;-44
2022/05/12 14:26:08;;;;;;;;;;;20.70;52.10;;;;;;5118069;28;19964;-47
2022/05/12 14:28:33;;;;;;;;;;;20.30;51.70;;;;;;5119727;28;20200;-44
2022/05/12 14:30:59;;;;;;;;;;;20.20;51.20;;;;;;5125949;28;19934;-46
2022/05/12 14:33:26;;;;;;;;;;;20.30;53.40;;;;;;5120686;28;19924;-45
2022/05/12 14:35:52;;;;;;;;;;;21.40;52.90;;;;;;5106415;28;20332;-54
2022/05/12 14:38:18;;;;;;;;;;;21.80;51.30;;;;;;5121869;28;19924;-45
2022/05/12 14:40:44;;;;;;;;;;;20.80;52.10;;;;;;5121092;28;20370;-44
2022/05/12 14:43:09;;;;;;;;;;;20.40;51.70;;;;;;5124450;28;19931;-46
2022/05/12 14:45:35;;;;;;;;;;;20.10;51.50;;;;;;5098716;28;19935;-47
2022/05/12 14:48:04;;;;;;;;;;;20.00;51.10;;;;;;5120015;28;19992;-47
2022/05/12 14:50:30;;;;;;;;;;;20.70;53.80;;;;;;5125821;28;20284;-46
2022/05/12 14:52:56;;;;;;;;;;;21.70;52.50;;;;;;5120000;27;20184;-47
2022/05/12 14:55:23;;;;;;;;;;;21.50;51.40;;;;;;5121918;28;19952;-53